Time;durP1;ratioP1;P1;durP2;ratioP2;P2;SDS_P1;SDS_P2;PMS_P1;PMS_P2;Temp;Humidity;BMP_temperature;BMP_pressure;BME280_temperature;BME280_humidity;BME280_pressure;Samples;Min_cycle;Max_cycle;Signal;HPM_P1;HPM_P2
2022/01/23 00:02:11;;;;;;;23.30;14.10;;;;;;;5.16;57.19;99482.94;4995438;28;20496;-64
2022/01/23 00:04:37;;;;;;;20.92;13.15;;;;;;;5.09;56.92;99467.94;4983289;28;20029;-63
2022/01/23 00:07:06;;;;;;;23.73;13.55;;;;;;;5.08;57.28;99480.00;5003481;28;20505;-63
2022/01/23 00:09:31;;;;;;;20.60;13.05;;;;;;;5.09;56.67;99483.41;4944114;28;20747;-64
2022/01/23 00:11:58;;;;;;;21.70;13.18;;;;;;;5.26;55.54;99487.59;4986277;28;20108;-64
2022/01/23 00:19:39;;;;;;;24.80;14.15;;;;;;;5.56;54.64;99483.19;5005374;28;20048;-64
2022/01/23 00:22:04;;;;;;;25.27;15.00;;;;;;;5.25;54.79;99444.69;5003161;28;20389;-63
2022/01/23 00:32:42;;;;;;;27.27;17.15;;;;;;;5.29;54.97;99500.31;5005099;28;20088;-63
2022/01/23 00:35:07;;;;;;;33.28;20.35;;;;;;;5.26;55.47;99503.91;4985326;28;20397;-65
2022/01/23 00:37:33;;;;;;;35.22;19.52;;;;;;;5.35;54.68;99512.84;4987638;28;20025;-64
2022/01/23 00:39:58;;;;;;;34.58;19.67;;;;;;;5.17;55.56;99499.28;5005487;28;20457;-63
2022/01/23 00:42:24;;;;;;;33.25;19.85;;;;;;;4.57;56.45;99440.81;4999372;28;20057;-64
2022/01/23 00:44:56;;;;;;;32.35;20.33;;;;;;;4.51;56.75;99459.19;4973195;28;20038;-64
2022/01/23 00:47:21;;;;;;;33.03;20.48;;;;;;;4.60;58.00;99505.88;4999143;28;20037;-64
2022/01/23 00:49:47;;;;;;;33.30;19.80;;;;;;;4.66;57.59;99517.59;4964730;28;20026;-64
2022/01/23 00:52:16;;;;;;;38.80;22.27;;;;;;;4.74;57.14;99530.88;4985303;28;20102;-64
2022/01/23 00:54:42;;;;;;;32.85;21.13;;;;;;;4.78;57.51;99524.66;4997897;28;20028;-64
2022/01/23 00:57:07;;;;;;;36.00;20.98;;;;;;;4.57;57.56;99525.84;5003534;28;20400;-64
2022/01/23 00:59:33;;;;;;;38.83;22.33;;;;;;;4.52;58.24;99532.97;5002990;28;20026;-63
2022/01/23 01:01:58;;;;;;;42.33;21.85;;;;;;;4.46;58.21;99533.31;5001996;28;20049;-64
2022/01/23 01:04:24;;;;;;;38.15;22.65;;;;;;;4.40;59.00;99548.19;5001653;28;20033;-65
2022/01/23 01:06:49;;;;;;;38.22;23.00;;;;;;;4.38;58.95;99556.88;4997284;28;20561;-65
2022/01/23 01:09:15;;;;;;;42.70;23.10;;;;;;;4.36;58.95;99559.56;4985488;28;20041;-65
2022/01/23 01:11:56;;;;;;;40.53;23.30;;;;;;;4.21;59.21;99556.03;4933862;28;20037;-64
2022/01/23 01:14:32;;;;;;;44.92;24.15;;;;;;;4.20;59.46;99556.97;4997430;28;20022;-64
2022/01/23 01:17:06;;;;;;;38.35;23.55;;;;;;;4.27;59.09;99574.66;5002648;28;20476;-63
2022/01/23 01:30:53;;;;;;;40.70;23.38;;;;;;;4.10;59.71;99563.50;4995926;28;20104;-62
2022/01/23 01:36:21;;;;;;;42.15;23.73;;;;;;;4.12;59.77;99571.97;5001773;28;20499;-62
2022/01/23 01:42:09;;;;;;;41.70;22.25;;;;;;;4.06;59.55;99576.63;4993874;28;20127;-63
2022/01/23 01:44:34;;;;;;;38.60;22.10;;;;;;;4.04;60.11;99567.22;5001604;28;20092;-63
2022/01/23 01:47:00;;;;;;;34.63;21.48;;;;;;;4.10;59.54;99585.84;4979401;28;20026;-63
2022/01/23 01:49:30;;;;;;;37.33;22.10;;;;;;;4.07;59.72;99580.84;4986740;28;20033;-62
2022/01/23 01:51:58;;;;;;;39.53;23.20;;;;;;;3.92;59.99;99562.72;4954685;28;20637;-62
2022/01/23 01:54:27;;;;;;;36.13;22.25;;;;;;;3.95;59.55;99590.03;5014360;28;20144;-63
2022/01/23 01:57:04;;;;;;;40.50;23.37;;;;;;;3.90;60.60;99592.84;4983896;28;20104;-63
2022/01/23 02:10:04;;;;;;;38.13;22.27;;;;;;;3.99;59.61;99579.50;4997330;28;20504;-62
2022/01/23 02:18:23;;;;;;;32.33;18.73;;;;;;;4.24;57.75;99579.06;4999571;28;20064;-63
2022/01/23 02:57:08;;;;;;;44.00;22.27;;;;;;;3.14;62.88;99576.91;4998892;28;20041;-65
2022/01/23 02:59:37;;;;;;;42.03;22.75;;;;;;;3.16;63.18;99565.66;5000060;28;20032;-63
2022/01/23 03:04:47;;;;;;;38.05;22.42;;;;;;;3.21;62.83;99563.69;5004338;28;20527;-63
2022/01/23 03:10:01;;;;;;;38.85;23.15;;;;;;;3.02;63.20;99553.47;5000254;28;20255;-64
2022/01/23 03:13:25;;;;;;;37.85;21.80;;;;;;;2.87;63.27;99551.63;5003492;28;20057;-64
2022/01/23 03:29:03;;;;;;;37.55;20.77;;;;;;;2.95;63.39;99557.22;5001372;28;20038;-64
2022/01/23 03:34:15;;;;;;;40.33;21.25;;;;;;;2.91;63.44;99560.84;4997465;28;20064;-63
2022/01/23 03:36:40;;;;;;;36.78;22.08;;;;;;;2.80;63.56;99561.38;4917131;28;20505;-64
2022/01/23 03:39:07;;;;;;;39.78;21.73;;;;;;;2.80;64.08;99563.09;5004304;28;20099;-65
2022/01/23 03:41:41;;;;;;;35.55;21.67;;;;;;;2.68;64.25;99556.78;4987413;28;20181;-63
2022/01/23 03:44:08;;;;;;;38.00;20.50;;;;;;;2.74;63.98;99553.09;5001689;28;20515;-64
2022/01/23 03:49:32;;;;;;;39.53;21.65;;;;;;;2.60;64.41;99561.47;4995582;28;20117;-63
2022/01/23 03:52:06;;;;;;;39.92;21.52;;;;;;;2.61;64.92;99571.69;5002768;28;20049;-64
2022/01/23 03:54:32;;;;;;;33.15;20.55;;;;;;;2.69;64.59;99572.13;4988504;28;20026;-63
2022/01/23 03:57:00;;;;;;;36.63;21.42;;;;;;;2.63;64.90;99580.13;4920152;28;20626;-61
2022/01/23 03:59:26;;;;;;;37.50;21.45;;;;;;;2.55;64.79;99571.09;4983802;28;20045;-63
2022/01/23 04:01:52;;;;;;;37.78;21.40;;;;;;;2.32;65.51;99575.56;5001028;28;20113;-62
2022/01/23 04:04:37;;;;;;;36.50;21.05;;;;;;;2.27;65.89;99577.50;4997883;28;20128;-63
2022/01/23 04:07:19;;;;;;;34.88;20.83;;;;;;;2.22;66.04;99579.44;5002061;28;20034;-61
2022/01/23 04:09:46;;;;;;;58.30;29.88;;;;;;;1.96;66.60;99536.97;5017975;28;20567;-62
2022/01/23 04:12:27;;;;;;;41.83;24.15;;;;;;;2.33;66.93;99582.34;5000660;28;20038;-65
2022/01/23 04:15:08;;;;;;;41.72;23.90;;;;;;;2.39;66.45;99576.97;5004980;28;20026;-64
2022/01/23 04:33:46;;;;;;;38.70;20.73;;;;;;;1.90;67.08;99579.94;5003318;28;20509;-63
2022/01/23 05:00:46;;;;;;;31.58;18.70;;;;;;;2.17;66.41;99600.16;4954992;28;20056;-63
2022/01/23 05:06:00;;;;;;;33.33;20.00;;;;;;;2.01;66.90;99578.63;4999960;28;20061;-63
2022/01/23 05:08:29;;;;;;;33.33;20.20;;;;;;;2.08;66.67;99614.25;4977731;28;20022;-64
2022/01/23 05:10:58;;;;;;;35.10;19.30;;;;;;;1.62;67.09;99546.13;5002084;28;20044;-63
2022/01/23 05:13:25;;;;;;;34.13;19.20;;;;;;;2.11;67.05;99597.88;5002170;28;20365;-64
2022/01/23 05:15:51;;;;;;;36.22;19.85;;;;;;;1.73;67.21;99590.94;5001867;28;21088;-63
2022/01/23 05:18:16;;;;;;;33.47;19.20;;;;;;;1.97;67.27;99620.72;4999750;28;20041;-63
2022/01/23 05:20:43;;;;;;;34.05;19.02;;;;;;;1.97;66.84;99605.31;4940272;28;20305;-64
2022/01/23 05:23:08;;;;;;;31.65;18.13;;;;;;;1.93;67.26;99594.34;5002488;28;20026;-63
2022/01/23 05:25:35;;;;;;;34.30;20.50;;;;;;;1.82;67.26;99615.34;5002732;28;20029;-62
2022/01/23 05:28:00;;;;;;;32.25;18.95;;;;;;;2.01;67.01;99623.09;5004641;28;20488;-63
2022/01/23 05:30:26;;;;;;;33.55;18.95;;;;;;;2.06;66.54;99622.88;4999857;28;20130;-64
2022/01/23 05:32:52;;;;;;;36.63;21.40;;;;;;;2.06;66.63;99625.44;4977171;28;20115;-62
2022/01/23 05:35:19;;;;;;;31.88;19.27;;;;;;;1.96;67.05;99614.75;4996054;28;20030;-61
2022/01/23 05:37:45;;;;;;;32.45;19.63;;;;;;;1.92;66.81;99628.63;5002926;28;20041;-63
2022/01/23 05:40:13;;;;;;;36.03;19.65;;;;;;;1.90;67.68;99643.25;4981791;28;20022;-62
2022/01/23 05:42:38;;;;;;;36.17;20.45;;;;;;;1.95;67.37;99637.91;4954772;28;20135;-64
2022/01/23 05:45:05;;;;;;;35.40;19.35;;;;;;;1.92;67.09;99633.75;4995662;28;20030;-64
2022/01/23 05:47:30;;;;;;;32.53;19.52;;;;;;;1.92;67.33;99634.56;4997049;28;20037;-62
2022/01/23 05:49:56;;;;;;;34.22;19.42;;;;;;;2.12;66.85;99643.16;4972326;28;20048;-62
2022/01/23 05:52:21;;;;;;;31.30;18.13;;;;;;;2.03;66.79;99641.81;5002305;28;20029;-63
2022/01/23 05:54:46;;;;;;;33.85;18.80;;;;;;;1.98;67.09;99648.03;5000607;28;20033;-63
2022/01/23 05:57:12;;;;;;;35.35;19.38;;;;;;;1.98;66.70;99648.88;5001182;28;20246;-63
2022/01/23 05:59:37;;;;;;;31.92;19.17;;;;;;;2.10;67.25;99650.91;4999471;28;20084;-63
2022/01/23 06:02:03;;;;;;;30.85;18.17;;;;;;;2.11;67.34;99651.75;5001824;28;20030;-62
2022/01/23 06:04:28;;;;;;;35.38;19.40;;;;;;;2.05;67.49;99663.09;4932971;28;20126;-62
2022/01/23 06:06:56;;;;;;;34.30;18.17;;;;;;;2.10;67.40;99668.88;4978961;28;20143;-62
2022/01/23 06:09:22;;;;;;;33.50;19.05;;;;;;;2.08;66.68;99662.13;4996762;28;20499;-63
2022/01/23 06:11:48;;;;;;;36.03;19.10;;;;;;;2.09;67.86;99680.03;4999793;28;20026;-62
2022/01/23 06:14:13;;;;;;;33.05;18.73;;;;;;;1.81;67.30;99680.38;5005447;28;20115;-62
2022/01/23 06:16:39;;;;;;;32.28;18.85;;;;;;;1.90;68.12;99677.41;4979749;28;20551;-63
2022/01/23 06:19:05;;;;;;;35.42;18.92;;;;;;;1.99;67.23;99665.09;4988142;28;20053;-63
2022/01/23 06:21:31;;;;;;;32.30;18.80;;;;;;;1.57;67.82;99638.63;5004912;28;20022;-61
2022/01/23 06:24:14;;;;;;;36.78;18.38;;;;;;;1.58;68.28;99635.13;4928718;28;21423;-63
2022/01/23 06:26:48;;;;;;;32.38;18.70;;;;;;;1.66;68.03;99684.38;4982668;28;20716;-62
2022/01/23 06:29:15;;;;;;;33.42;18.23;;;;;;;1.71;68.71;99691.88;4979245;28;20030;-63
2022/01/23 06:31:41;;;;;;;32.88;18.65;;;;;;;1.89;67.64;99708.25;4989768;28;20429;-63
2022/01/23 06:34:07;;;;;;;37.78;19.42;;;;;;;1.80;67.43;99699.19;5003262;28;20041;-62
2022/01/23 06:36:34;;;;;;;35.05;18.83;;;;;;;1.44;67.47;99645.13;4984239;28;20396;-62
2022/01/23 06:39:00;;;;;;;34.80;18.40;;;;;;;1.86;67.56;99716.06;5003137;28;20141;-63
2022/01/23 06:41:25;;;;;;;33.55;17.40;;;;;;;1.79;67.32;99697.53;5004725;28;21736;-63
2022/01/23 06:43:50;;;;;;;30.23;16.70;;;;;;;1.80;68.05;99714.59;5002164;28;20046;-63
2022/01/23 06:46:16;;;;;;;31.33;16.92;;;;;;;1.34;68.55;99660.84;4897187;28;20033;-64
2022/01/23 06:48:41;;;;;;;31.10;17.98;;;;;;;1.56;67.96;99713.84;5005191;28;20030;-62
2022/01/23 06:51:07;;;;;;;35.42;18.02;;;;;;;1.65;68.93;99710.91;4999257;28;20034;-63
2022/01/23 06:53:32;;;;;;;35.58;17.27;;;;;;;1.21;68.77;99659.69;5003843;28;20033;-62
2022/01/23 06:55:57;;;;;;;32.42;17.00;;;;;;;1.49;67.90;99707.28;5004339;28;20030;-62
2022/01/23 06:58:23;;;;;;;29.83;16.73;;;;;;;1.63;68.12;99729.81;5004883;28;20048;-62
2022/01/23 07:00:48;;;;;;;35.30;18.38;;;;;;;0.91;69.84;99690.72;4984708;28;20539;-61
2022/01/23 07:03:14;;;;;;;37.70;18.38;;;;;;;1.29;69.82;99743.94;4983292;28;20110;-62
2022/01/23 07:05:39;;;;;;;42.15;20.08;;;;;;;1.36;69.51;99740.25;4978569;28;20040;-62
2022/01/23 07:08:05;;;;;;;33.25;18.38;;;;;;;1.39;69.67;99760.66;4966988;28;20392;-63
2022/01/23 07:10:31;;;;;;;36.70;17.95;;;;;;;1.45;69.20;99769.81;4986026;28;20476;-63
2022/01/23 07:12:56;;;;;;;31.30;17.38;;;;;;;1.39;69.56;99770.91;5004556;28;20037;-63
2022/01/23 07:15:22;;;;;;;36.65;18.77;;;;;;;1.11;69.98;99719.84;5004628;28;20161;-62
2022/01/23 07:17:47;;;;;;;36.45;18.98;;;;;;;1.37;70.14;99766.72;4983466;28;20477;-62
2022/01/23 07:20:13;;;;;;;35.50;18.42;;;;;;;1.38;70.85;99776.91;5004561;28;20029;-62
2022/01/23 07:22:38;;;;;;;34.08;18.27;;;;;;;1.37;70.31;99756.44;5001343;28;20034;-62
2022/01/23 07:25:05;;;;;;;31.95;17.52;;;;;;;1.60;69.40;99783.78;5006080;28;20033;-62
2022/01/23 07:27:36;;;;;;;33.92;18.40;;;;;;;1.41;70.38;99789.63;4947779;28;20144;-65
2022/01/23 07:30:04;;;;;;;35.72;18.35;;;;;;;1.57;70.16;99796.72;4986362;28;20076;-62
2022/01/23 07:32:30;;;;;;;36.75;18.00;;;;;;;1.60;70.78;99794.03;4978155;28;20030;-63
2022/01/23 07:34:55;;;;;;;32.58;18.88;;;;;;;1.56;70.97;99787.38;4996765;28;20413;-62
2022/01/23 07:37:20;;;;;;;30.45;16.92;;;;;;;1.63;71.12;99788.78;5003394;28;20044;-62
2022/01/23 07:39:46;;;;;;;29.25;17.00;;;;;;;1.38;71.55;99753.84;5004619;28;20048;-63
2022/01/23 07:42:11;;;;;;;32.67;17.55;;;;;;;1.42;71.31;99749.44;5001238;28;20107;-62
2022/01/23 07:44:37;;;;;;;34.15;17.05;;;;;;;1.73;70.82;99808.91;4974122;28;20049;-63
2022/01/23 07:47:02;;;;;;;33.75;16.77;;;;;;;1.77;70.75;99804.50;4987363;28;20101;-63
2022/01/23 07:49:28;;;;;;;28.10;16.85;;;;;;;1.65;70.62;99802.38;4911278;28;20365;-63
2022/01/23 07:51:53;;;;;;;31.42;16.55;;;;;;;1.34;71.02;99757.41;5003315;28;20680;-62
2022/01/23 07:54:20;;;;;;;31.00;16.65;;;;;;;1.59;71.24;99807.72;4999208;28;20038;-63
2022/01/23 07:56:46;;;;;;;30.10;16.10;;;;;;;1.54;71.13;99808.75;4995253;28;20357;-63
2022/01/23 07:59:11;;;;;;;30.65;16.92;;;;;;;1.58;71.00;99813.78;4982552;28;20498;-63
2022/01/23 08:01:40;;;;;;;33.97;17.98;;;;;;;1.28;70.55;99768.75;5000591;28;20087;-62
2022/01/23 08:04:09;;;;;;;37.13;19.45;;;;;;;1.60;70.53;99806.84;5000780;28;20092;-62
2022/01/23 08:06:40;;;;;;;35.42;19.67;;;;;;;1.72;70.62;99819.22;5001005;28;20084;-63
2022/01/23 08:09:07;;;;;;;34.80;18.88;;;;;;;1.70;70.82;99816.69;4991389;28;20049;-62
2022/01/23 08:11:33;;;;;;;36.15;18.27;;;;;;;1.77;70.26;99813.88;5002828;28;20060;-63
2022/01/23 08:13:58;;;;;;;30.05;17.25;;;;;;;1.84;70.54;99830.72;4985525;28;20038;-63
2022/01/23 08:16:24;;;;;;;29.25;17.40;;;;;;;1.82;70.84;99835.91;5002962;28;20074;-62
2022/01/23 08:18:49;;;;;;;31.38;19.00;;;;;;;1.58;70.63;99837.66;4995813;28;20543;-63
2022/01/23 08:21:14;;;;;;;33.13;17.45;;;;;;;1.57;70.67;99825.75;4981508;28;20030;-63
2022/01/23 08:23:40;;;;;;;31.23;16.92;;;;;;;1.48;70.57;99818.41;4993670;28;20121;-62
2022/01/23 08:26:06;;;;;;;27.50;15.05;;;;;;;1.72;69.96;99835.41;4991122;28;20096;-63
2022/01/23 08:28:32;;;;;;;26.90;15.57;;;;;;;1.82;70.09;99827.38;4955372;28;20350;-63
2022/01/23 08:30:57;;;;;;;28.73;15.38;;;;;;;1.84;70.19;99833.28;4993285;28;20388;-62
2022/01/23 08:33:24;;;;;;;28.58;16.35;;;;;;;1.63;69.30;99799.88;4992948;28;20041;-62
2022/01/23 08:35:50;;;;;;;27.17;15.48;;;;;;;1.93;69.65;99838.03;4995237;28;20549;-62
2022/01/23 08:38:16;;;;;;;27.33;15.07;;;;;;;1.78;70.16;99836.09;4994527;28;20156;-63
2022/01/23 08:43:07;;;;;;;28.95;17.38;;;;;;;1.69;70.09;99819.31;4994884;28;20457;-62
2022/01/23 08:45:33;;;;;;;30.77;17.88;;;;;;;1.95;68.97;99835.44;4992911;28;20824;-62
2022/01/23 08:47:59;;;;;;;30.35;17.40;;;;;;;1.71;70.31;99833.75;4987228;28;20034;-63
2022/01/23 08:50:25;;;;;;;33.22;16.65;;;;;;;1.73;71.06;99824.28;4976448;28;20533;-63
2022/01/23 08:52:51;;;;;;;30.85;16.92;;;;;;;1.88;70.76;99824.56;4990937;28;20034;-62
2022/01/23 08:55:17;;;;;;;34.38;19.23;;;;;;;2.13;70.33;99836.44;4970535;28;20053;-64
2022/01/23 08:57:43;;;;;;;31.02;18.85;;;;;;;2.17;69.48;99831.09;4991418;28;20058;-62
2022/01/23 09:00:09;;;;;;;36.28;20.30;;;;;;;2.26;70.17;99827.34;4991669;28;20564;-61
2022/01/23 09:02:34;;;;;;;36.22;18.75;;;;;;;2.36;69.35;99851.75;4993159;28;20073;-62
2022/01/23 09:05:00;;;;;;;31.45;17.40;;;;;;;2.41;69.65;99844.69;4989222;28;20030;-63
2022/01/23 09:07:25;;;;;;;26.00;16.20;;;;;;;2.52;69.58;99844.25;4995377;28;20033;-62
2022/01/23 09:09:53;;;;;;;27.35;16.60;;;;;;;2.44;69.57;99815.47;4925992;28;20038;-61
2022/01/23 09:15:03;;;;;;;29.23;17.05;;;;;;;2.76;69.53;99833.84;4994042;28;20119;-62
2022/01/23 09:17:28;;;;;;;28.83;18.38;;;;;;;2.88;69.47;99831.59;4994661;28;20496;-61
2022/01/23 09:19:54;;;;;;;33.38;17.98;;;;;;;2.63;68.61;99779.63;4995588;28;20113;-63
2022/01/23 09:22:19;;;;;;;28.85;16.92;;;;;;;3.08;67.84;99832.44;4982150;28;20026;-63
2022/01/23 09:24:44;;;;;;;31.25;17.95;;;;;;;3.05;67.97;99827.47;4975768;28;20049;-63
2022/01/23 09:27:18;;;;;;;27.75;16.15;;;;;;;2.98;67.99;99839.72;4999573;28;20103;-62
2022/01/23 09:29:44;;;;;;;28.73;15.65;;;;;;;3.06;67.90;99839.38;4924333;28;20406;-63
2022/01/23 09:32:12;;;;;;;31.23;15.93;;;;;;;3.17;66.74;99841.50;4984843;28;20075;-62
2022/01/23 09:34:40;;;;;;;31.70;16.13;;;;;;;2.92;66.55;99790.34;4998698;28;20041;-62
2022/01/23 09:37:08;;;;;;;29.25;16.25;;;;;;;3.30;66.29;99832.31;5002179;28;20045;-63
2022/01/23 09:39:34;;;;;;;25.95;14.55;;;;;;;3.29;67.21;99827.28;5003133;28;20039;-62
2022/01/23 09:42:10;;;;;;;32.13;16.08;;;;;;;3.26;67.92;99835.94;4981524;28;20621;-61
2022/01/23 09:44:46;;;;;;;24.80;14.55;;;;;;;3.32;67.18;99837.41;4985637;28;20033;-62
2022/01/23 09:47:12;;;;;;;24.65;13.38;;;;;;;3.36;66.66;99849.22;4998837;28;20512;-63
2022/01/23 09:49:39;;;;;;;26.20;13.95;;;;;;;3.52;65.98;99859.66;4986342;28;20503;-62
2022/01/23 09:52:05;;;;;;;27.90;14.70;;;;;;;3.57;66.77;99862.84;4999613;28;20026;-63
2022/01/23 09:54:31;;;;;;;25.48;13.77;;;;;;;3.65;66.45;99858.19;4984831;28;20034;-63
2022/01/23 09:57:03;;;;;;;29.38;15.57;;;;;;;3.74;67.03;99865.50;4995504;28;20113;-63
2022/01/23 09:59:29;;;;;;;27.60;15.25;;;;;;;3.82;66.57;99863.41;4976698;28;20068;-62
2022/01/23 10:01:56;;;;;;;25.00;15.30;;;;;;;3.85;65.29;99859.84;4991050;28;20088;-63
2022/01/23 10:04:23;;;;;;;26.67;13.82;;;;;;;3.96;65.34;99862.75;4971955;28;20034;-62
2022/01/23 10:06:48;;;;;;;23.08;13.60;;;;;;;4.00;63.62;99848.84;4974321;28;20026;-62
2022/01/23 10:09:14;;;;;;;27.00;14.75;;;;;;;4.07;63.66;99857.13;4994478;28;20038;-62
2022/01/23 10:11:42;;;;;;;26.52;14.82;;;;;;;4.02;63.68;99843.63;5000022;28;20750;-62
2022/01/23 10:14:08;;;;;;;25.35;14.43;;;;;;;4.15;62.97;99849.00;4982054;28;20499;-62
2022/01/23 10:16:33;;;;;;;25.45;14.55;;;;;;;4.17;61.58;99840.28;4980338;28;20026;-62
2022/01/23 10:19:01;;;;;;;24.60;13.68;;;;;;;4.03;61.13;99807.53;4989725;28;20033;-63
2022/01/23 10:21:26;;;;;;;24.92;11.73;;;;;;;4.33;59.61;99848.13;4982422;28;20160;-63
2022/01/23 10:23:53;;;;;;;24.17;12.50;;;;;;;4.37;59.16;99849.63;4981007;28;20034;-63
2022/01/23 10:26:56;;;;;;;25.17;13.48;;;;;;;4.52;59.45;99850.63;4992030;28;20041;-62
2022/01/23 10:29:32;;;;;;;24.13;13.05;;;;;;;4.16;58.59;99797.47;5003969;28;20495;-63
2022/01/23 10:32:14;;;;;;;26.88;13.45;;;;;;;4.43;59.42;99835.63;4992063;28;20061;-62
2022/01/23 10:34:40;;;;;;;23.90;12.93;;;;;;;4.47;59.97;99844.84;4999132;28;20044;-63
2022/01/23 10:37:07;;;;;;;25.95;14.07;;;;;;;4.56;59.41;99846.16;4990087;28;20034;-64
2022/01/23 10:39:45;;;;;;;26.55;14.32;;;;;;;4.59;58.50;99844.25;4990733;28;20550;-62
2022/01/23 10:51:36;;;;;;;22.08;12.23;;;;;;;4.73;59.08;99835.84;4942650;28;20050;-64
2022/01/23 10:54:11;;;;;;;25.40;12.98;;;;;;;4.82;57.82;99834.53;4983700;28;20596;-65
2022/01/23 10:56:49;;;;;;;25.40;13.55;;;;;;;4.95;60.99;99838.16;4988247;28;20018;-64
2022/01/23 10:59:14;;;;;;;23.30;12.98;;;;;;;4.82;61.98;99819.91;4989812;28;20038;-64
2022/01/23 11:01:59;;;;;;;26.05;13.07;;;;;;;4.80;61.22;99828.63;4992594;28;20037;-64
2022/01/23 11:04:24;;;;;;;23.92;13.07;;;;;;;4.92;60.26;99842.63;4978111;28;20053;-64
2022/01/23 11:06:52;;;;;;;24.00;13.07;;;;;;;4.94;58.75;99827.91;4998088;28;20019;-64
2022/01/23 11:09:18;;;;;;;25.70;12.80;;;;;;;5.00;59.35;99823.28;4999544;28;20072;-63
2022/01/23 11:11:46;;;;;;;25.00;13.98;;;;;;;5.11;58.37;99822.72;4988191;28;20080;-64
2022/01/23 11:19:46;;;;;;;30.05;14.05;;;;;;;5.14;56.75;99770.97;4994939;28;20409;-64
2022/01/23 11:22:19;;;;;;;25.65;13.02;;;;;;;5.42;56.02;99804.78;5002120;28;20397;-64
2022/01/23 11:24:47;;;;;;;24.42;12.57;;;;;;;5.43;55.95;99768.59;4995038;28;20041;-64
2022/01/23 11:27:13;;;;;;;24.45;13.02;;;;;;;5.74;55.91;99797.88;4985411;28;20077;-64
2022/01/23 11:29:53;;;;;;;23.20;12.95;;;;;;;5.85;54.81;99799.84;4987357;28;20037;-63
2022/01/23 11:32:20;;;;;;;25.33;13.32;;;;;;;5.85;53.84;99780.03;4994398;28;20113;-64
2022/01/23 11:34:46;;;;;;;25.27;12.52;;;;;;;5.86;54.79;99773.13;4989665;28;20109;-64
2022/01/23 11:37:13;;;;;;;26.35;12.95;;;;;;;5.94;53.79;99769.19;4978640;28;20113;-64
2022/01/23 11:39:48;;;;;;;27.40;13.60;;;;;;;6.01;55.02;99784.38;4994655;28;20042;-63
2022/01/23 11:56:41;;;;;;;28.42;13.05;;;;;;;6.08;52.28;99759.88;4990827;28;20048;-64
2022/01/23 11:59:13;;;;;;;25.30;12.55;;;;;;;6.12;53.08;99758.78;4977232;28;20500;-64
2022/01/23 12:01:40;;;;;;;25.38;13.63;;;;;;;6.07;52.53;99748.69;4997540;28;20060;-64
2022/01/23 12:04:05;;;;;;;24.20;12.65;;;;;;;5.87;51.34;99713.66;4998620;28;20606;-64
2022/01/23 12:06:31;;;;;;;24.25;13.18;;;;;;;6.13;51.75;99735.44;5002291;28;20504;-64
2022/01/23 12:09:09;;;;;;;28.52;14.27;;;;;;;5.70;51.80;99663.00;4995215;28;20038;-64
2022/01/23 12:11:39;;;;;;;23.20;13.13;;;;;;;6.25;52.05;99745.97;5001285;28;20054;-64
2022/01/23 12:16:51;;;;;;;27.00;14.05;;;;;;;6.39;50.86;99737.41;5001968;28;20347;-65
2022/01/23 12:19:18;;;;;;;27.63;13.98;;;;;;;6.42;51.59;99730.31;4998575;28;20317;-65
2022/01/23 12:21:45;;;;;;;23.70;13.30;;;;;;;6.55;51.28;99720.06;4993600;28;20026;-65
2022/01/23 12:24:13;;;;;;;23.70;13.30;;;;;;;6.54;51.09;99713.25;4972262;28;20366;-64
2022/01/23 12:26:38;;;;;;;25.75;14.13;;;;;;;6.60;50.65;99722.41;4980965;28;20144;-64
2022/01/23 12:29:25;;;;;;;27.80;13.85;;;;;;;6.61;50.68;99721.44;4999468;28;20034;-64
2022/01/23 12:32:29;;;;;;;25.10;13.48;;;;;;;6.70;50.60;99724.34;5032341;28;20033;-64
2022/01/23 12:34:57;;;;;;;25.60;13.38;;;;;;;6.82;49.79;99715.00;4998033;28;20037;-64
2022/01/23 12:37:23;;;;;;;23.05;13.35;;;;;;;6.96;49.79;99706.41;4987023;28;20544;-65
2022/01/23 12:40:27;;;;;;;27.85;13.73;;;;;;;6.98;48.96;99694.19;4983692;28;20049;-64
2022/01/23 12:43:07;;;;;;;25.48;13.60;;;;;;;7.00;49.39;99684.59;4994417;28;20088;-65
2022/01/23 12:46:16;;;;;;;;;;;;;;;7.06;49.36;99676.47;4990591;28;20145;-64
2022/01/23 12:48:43;;;;;;;25.52;12.98;;;;;;;7.10;47.96;99680.50;4968490;28;19922;-64
2022/01/23 12:51:30;;;;;;;26.08;13.18;;;;;;;7.13;47.85;99695.00;4972247;28;20137;-65
2022/01/23 12:53:55;;;;;;;25.30;13.30;;;;;;;7.20;47.58;99690.28;4989597;28;20042;-64
2022/01/23 12:56:23;;;;;;;25.65;13.70;;;;;;;7.05;47.75;99677.38;5002668;28;20030;-65
2022/01/23 12:59:05;;;;;;;22.35;12.93;;;;;;;7.10;47.74;99669.31;5000519;28;20038;-65
2022/01/23 13:01:31;;;;;;;24.60;13.23;;;;;;;7.13;47.94;99675.13;4967185;28;20088;-66
2022/01/23 13:03:59;;;;;;;29.23;13.90;;;;;;;7.15;48.27;99674.22;4996566;28;20030;-68
2022/01/23 13:06:32;;;;;;;22.50;12.15;;;;;;;6.85;47.73;99624.31;4991425;28;20027;-68
2022/01/23 13:12:15;;;;;;;25.05;13.32;;;;;;;7.28;47.93;99655.25;4995269;28;20087;-68
2022/01/23 13:15:44;;;;;;;23.92;13.40;;;;;;;7.30;47.26;99639.59;4982333;28;20022;-67
2022/01/23 13:31:06;;;;;;;25.83;13.95;;;;;;;7.42;46.97;99641.41;4994453;28;20413;-66
2022/01/23 13:33:31;;;;;;;23.73;13.65;;;;;;;7.44;49.82;99644.72;4997894;28;20436;-67
2022/01/23 13:36:01;;;;;;;26.25;14.43;;;;;;;7.33;52.43;99647.16;4931431;28;20038;-65
2022/01/23 13:38:26;;;;;;;28.45;14.18;;;;;;;7.10;50.25;99607.25;4989973;28;20378;-66
2022/01/23 13:41:05;;;;;;;28.48;13.75;;;;;;;7.40;49.92;99643.25;4984072;28;20061;-65
2022/01/23 13:52:10;;;;;;;26.77;14.60;;;;;;;7.60;47.33;99629.03;4992825;28;20042;-66
2022/01/23 13:57:32;;;;;;;28.08;14.07;;;;;;;7.45;48.00;99617.09;4991427;28;20069;-65
2022/01/23 13:57:38;;;;;;;24.75;13.07;;;;;;;7.22;46.77;99580.59;4980178;28;20041;-66
2022/01/23 14:00:15;;;;;;;26.88;13.75;;;;;;;7.53;46.15;99617.41;4993661;28;20033;-66
2022/01/23 14:02:44;;;;;;;25.27;13.20;;;;;;;7.54;46.32;99607.88;4982262;28;20061;-66
2022/01/23 14:05:13;;;;;;;29.02;13.82;;;;;;;7.55;46.87;99607.78;4988347;28;20080;-65
2022/01/23 14:07:41;;;;;;;25.45;13.43;;;;;;;7.64;47.78;99614.13;4988608;28;20045;-66
2022/01/23 14:10:32;;;;;;;24.13;12.20;;;;;;;7.38;45.48;99567.50;4995773;28;20053;-66
2022/01/23 14:13:11;;;;;;;22.25;11.68;;;;;;;7.49;46.09;99572.78;4983239;28;20745;-65
2022/01/23 14:15:46;;;;;;;23.77;12.15;;;;;;;7.65;46.61;99601.06;4988291;28;20023;-65
2022/01/23 14:18:13;;;;;;;23.15;11.68;;;;;;;7.66;45.83;99607.06;4942937;28;20740;-64
2022/01/23 14:20:44;;;;;;;22.52;12.63;;;;;;;7.74;48.23;99603.97;4959768;28;20647;-66
2022/01/23 14:23:16;;;;;;;25.75;13.07;;;;;;;7.78;46.96;99616.63;4990181;28;20026;-65
2022/01/23 14:25:46;;;;;;;24.20;12.73;;;;;;;7.51;47.05;99559.75;4993691;28;20561;-65
2022/01/23 14:28:14;;;;;;;21.33;11.57;;;;;;;7.85;48.53;99598.94;4993211;28;20076;-65
2022/01/23 14:30:49;;;;;;;23.67;12.07;;;;;;;7.53;48.20;99557.06;4982542;28;20515;-65
2022/01/23 14:33:19;;;;;;;21.52;11.90;;;;;;;7.69;48.46;99581.00;4992309;28;20033;-66
2022/01/23 14:35:45;;;;;;;22.25;12.55;;;;;;;7.81;47.70;99603.47;4980563;28;20022;-65
2022/01/23 14:38:18;;;;;;;20.80;11.13;;;;;;;7.40;48.38;99550.09;4938749;28;20026;-65
2022/01/23 14:40:54;;;;;;;23.65;12.35;;;;;;;7.66;48.30;99599.31;4994709;28;20029;-64
2022/01/23 14:43:20;;;;;;;22.42;11.70;;;;;;;7.30;45.76;99544.72;4994022;28;20080;-66
2022/01/23 14:45:48;;;;;;;23.88;12.10;;;;;;;7.43;46.52;99559.41;4996323;28;20299;-66
2022/01/23 14:48:14;;;;;;;21.10;11.27;;;;;;;7.58;46.40;99592.06;4982068;28;20372;-66
2022/01/23 14:50:43;;;;;;;20.10;11.32;;;;;;;7.62;46.04;99590.09;4991625;28;20030;-67
2022/01/23 14:53:10;;;;;;;24.80;11.50;;;;;;;7.65;45.28;99595.91;4987487;28;20034;-64
2022/01/23 14:55:36;;;;;;;22.58;12.82;;;;;;;7.65;45.81;99587.31;4976345;28;20053;-67
2022/01/23 14:58:03;;;;;;;20.42;11.38;;;;;;;7.63;46.27;99584.81;4990188;28;20026;-67
2022/01/23 15:00:31;;;;;;;24.58;12.52;;;;;;;7.60;46.18;99590.19;4993618;28;20033;-66
2022/01/23 15:02:56;;;;;;;23.08;12.25;;;;;;;7.55;46.50;99588.84;4981094;28;20111;-65
2022/01/23 15:05:22;;;;;;;26.08;12.68;;;;;;;7.21;46.59;99544.47;4995164;28;20057;-67
2022/01/23 15:07:48;;;;;;;24.48;13.73;;;;;;;7.46;46.34;99592.84;4983703;28;20357;-66
2022/01/23 15:10:14;;;;;;;26.52;14.30;;;;;;;7.34;46.28;99580.72;5002175;28;20034;-66